METAR Data
IDs: Format: Raw Decoded Include TAF

Data at: 2031 UTC 19 May 2019

PABE 191953Z 36008KT 10SM SCT120 BKN200 12/06 A2973 RMK SLP070 T01220056 VIA AUTODIAL
PABE 191853Z 35009KT 10SM SCT120 BKN200 11/05 A2975 RMK SLP074 T01060050 VIA AUTODIAL
PABE 191753Z 33008KT 10SM SCT120 BKN200 09/07 A2975 RMK SLP077 60001 T00890067 10089 20050 56004 VIA AUTODIAL
PABE 191653Z 33009KT 10SM CLR 07/06 A2976 RMK SLP079 T00720056 VIA AUTODIAL
PABE 191553Z COR 34008KT 10SM FEW085 SCT150 07/06 A2976 RMK SLP078 T00720056 VIA AUTODIAL
PABE 191453Z 34005KT 10SM SCT042 06/04 A2977 RMK SLP081 60001 T00560044 56009 VIA AUTODIAL
PABE 191353Z 34008KT 10SM FEW049 OVC085 06/04 A2977 RMK RAE01 SLP083 P0000 T00560044 VIA AUTODIAL
PABE 191253Z 30010KT 10SM -RA BKN042 OVC070 06/05 A2978 RMK RAB42 SLP086 P0001 T00560050 VIA AUTODIAL
PABE 191153Z 32007KT 10SM BKN044 OVC060 06/04 A2980 RMK SLP090 60000 T00610044 10100 20050 58001 VIA AUTODIAL
PABE 191053Z 31008KT 10SM SCT100 06/04 A2980 RMK SLP093 T00560044 VIA AUTODIAL
PABE 190953Z 29006KT 10SM SCT100 06/04 A2979 RMK SLP090 T00610044 VIA AUTODIAL
PABE 190853Z 33004KT 10SM SCT095 08/04 A2980 RMK SLP091 60000 T00780044 401220033 53001 VIA AUTODIAL
PABE 190753Z 33004KT 10SM FEW090 08/04 A2980 RMK SLP092 T00780044 VIA AUTODIAL
PABE 190653Z 30006KT 10SM BKN080 OVC100 09/03 A2979 RMK RAB30E39 SLP089 P0000 T00940033 VIA AUTODIAL
PABE 190553Z 34004KT 10SM OVC049 10/03 A2979 RMK SLP091 T01000033 10122 20100 53001 VIA AUTODIAL
PABE 190453Z 33009KT 10SM SCT060 OVC120 12/03 A2979 RMK SLP088 T01170033 VIA AUTODIAL
PABE 190411Z 31008KT 10SM FEW060 BKN070 OVC085 11/03 A2979 RMK T01060033 VIA AUTODIAL
PABE 190353Z 29009KT 10SM FEW032 BKN070 OVC080 11/03 A2979 RMK SLP090 T01110033 VIA AUTODIAL
PABE 190253Z 26008KT 10SM BKN036 OVC070 11/03 A2979 RMK SLP090 T01110028 55001 VIA AUTODIAL
PABE 190153Z 28008KT 250V310 10SM BKN036 OVC070 12/03 A2979 RMK SLP089 T01170033 VIA AUTODIAL
PABE 190053Z 26006KT 10SM BKN033 BKN065 12/03 A2979 RMK SLP089 T01220033 VIA AUTODIAL
PABE 190000Z 23008KT 10SM BKN033 11/03 A2980 RMK T01110033 VIA AUTODIAL
PABE 182353Z 22007KT 10SM BKN029 12/03 A2980 RMK SLP092 T01170033 10122 20056 58001 VIA AUTODIAL
PABE 182253Z 24006KT 10SM BKN027 11/03 A2980 RMK SLP093 T01110033 VIA AUTODIAL
PABE 182212Z VRB03KT 10SM BKN027 09/02 A2980 RMK T00890022 VIA AUTODIAL
PABE 182153Z COR 16008KT 10SM BKN027 BKN032 10/03 A2980 RMK SLP093 T01000028 VIA AUTODIAL
PABE 182053Z 18008KT 10SM BKN024 10/03 A2980 RMK SLP093 T01000033 51007 VIA AUTODIAL
PABE 181953Z 19003KT 10SM BKN020 07/03 A2979 RMK SLP091 T00720028 VIA AUTODIAL
PABE 181853Z 17008KT 10SM BKN018 08/03 A2979 RMK SLP089 T00780028 VIA AUTODIAL
PABE 181753Z 16005KT 10SM OVC018 06/03 A2978 RMK SLP086 T00560028 10061 20033 51009 VIA AUTODIAL
PABE 181653Z 14008KT 10SM OVC016 06/03 A2977 RMK SLP082 T00560033 VIA AUTODIAL
PABE 181553Z 13006KT 10SM OVC016 04/03 A2976 RMK SLP080 T00440033 VIA AUTODIAL
PABE 181453Z 14003KT 10SM OVC015 04/03 A2975 RMK SLP076 T00390028 51007 VIA AUTODIAL
PABE 181451Z 15003KT 10SM OVC015 03/03 A2975 RMK VIA AUTODIAL
PABE 181418Z AUTO 18005KT 10SM BKN010 OVC015 03/03 A2975 RMK CIG 008V013 T00330028 TSNO VIA AUTODIAL
PABE 181353Z 16009KT 10SM OVC008 04/03 A2974 RMK SLP073 T00390028 VIA AUTODIAL
PABE 181331Z 16009KT 10SM OVC009 04/03 A2974 RMK CIG 008V012 T00390028 VIA AUTODIAL
PABE 181253Z 16008KT 10SM OVC011 04/03 A2973 RMK SLP069 T00390028 VIA AUTODIAL
PABE 181153Z 15008KT 10SM OVC011 04/03 A2971 RMK SLP063 70004 T00390033 10072 20028 51009 VIA AUTODIAL
PABE 181149Z 16008KT 10SM OVC011 04/03 A2971 RMK VIA AUTODIAL
PABE 181053Z 18009KT 10SM OVC009 04/03 A2970 RMK SLP059 T00440033 VIA AUTODIAL
PABE 181046Z 15004KT 10SM OVC009 04/03 A2970 RMK T00390033 VIA AUTODIAL
PABE 180953Z 17005KT 10SM OVC010 04/03 A2969 RMK SLP054 T00390028 VIA AUTODIAL
PABE 180853Z 20008KT 10SM OVC011 04/03 A2967 RMK SLP048 T00390028 401170028 53018 VIA AUTODIAL
PABE 180836Z 19007KT 10SM BKN011 03/03 A2966 RMK T00330028 VIA AUTODIAL